Terminal Aerodrome Forecast
Issued by NWS

Home | Current Version | Previous Version | Text Only | Print | Product List | Glossary On
Versions: 1 2 3 4 5 6 7 8 9 10 11 12 13 14 15 16
000
FTUS44 KLZK 171746
TAFADF
TAF
KADF 171746Z 1718/1818 31003KT P6SM SKC
     FM172000 31006KT P6SM SCT100 BKN250
     FM180500 VRB02KT P6SM VCSH SCT050 OVC100
     FM181000 05004KT 5SM BR VCSH SCT015 OVC035=

USA.gov is the U.S. government's official web portal to all federal, state and local government web resources and services.